Time;durP1;ratioP1;P1;durP2;ratioP2;P2;SDS_P1;SDS_P2;PMS_P1;PMS_P2;Temp;Humidity;BMP_temperature;BMP_pressure;BME280_temperature;BME280_humidity;BME280_pressure;Samples;Min_cycle;Max_cycle;Signal;HPM_P1;HPM_P2
2022/06/21 00:01:31;;;;;;;4.63;2.83;;;;;;;;;;5032077;28;20406;-85
2022/06/21 00:03:58;;;;;;;3.90;2.70;;;;;;;;;;5034079;28;20430;-84
2022/06/21 00:06:25;;;;;;;5.03;3.43;;;;;;;;;;5015298;28;20502;-85
2022/06/21 00:08:52;;;;;;;4.90;3.30;;;;;;;;;;5032546;28;20407;-85
2022/06/21 00:11:24;;;;;;;5.93;3.00;;;;;;;;;;5013633;28;20437;-84
2022/06/21 00:13:50;;;;;;;5.80;3.60;;;;;;;;;;5032493;28;20418;-84
2022/06/21 00:16:17;;;;;;;3.60;3.20;;;;;;;;;;5014787;28;20459;-85
2022/06/21 00:18:44;;;;;;;5.37;2.73;;;;;;;;;;5031547;28;20411;-84
2022/06/21 00:21:20;;;;;;;4.97;3.47;;;;;;;;;;5032293;28;20454;-84
2022/06/21 00:23:47;;;;;;;3.40;3.10;;;;;;;;;;5014304;28;20407;-83
2022/06/21 00:26:15;;;;;;;4.40;3.60;;;;;;;;;;5014110;28;20475;-84
2022/06/21 00:28:41;;;;;;;4.33;3.37;;;;;;;;;;5031016;28;20450;-83
2022/06/21 00:31:21;;;;;;;3.20;2.40;;;;;;;;;;5014478;28;20495;-84
2022/06/21 00:33:47;;;;;;;3.20;2.90;;;;;;;;;;5014307;28;20446;-83
2022/06/21 00:36:34;;;;;;;3.70;2.93;;;;;;;;;;5032890;28;20494;-85
2022/06/21 00:39:01;;;;;;;3.20;2.40;;;;;;;;;;5014596;28;20408;-85
2022/06/21 00:41:45;;;;;;;3.30;2.13;;;;;;;;;;5035286;28;20419;-85
2022/06/21 00:44:27;;;;;;;4.77;2.70;;;;;;;;;;5019681;28;20410;-85
2022/06/21 00:47:02;;;;;;;4.13;2.07;;;;;;;;;;5033947;28;20895;-86
2022/06/21 00:49:30;;;;;;;2.63;2.00;;;;;;;;;;5032396;28;20431;-85
2022/06/21 00:51:59;;;;;;;2.57;1.97;;;;;;;;;;5033156;28;20772;-84
2022/06/21 00:54:47;;;;;;;3.70;2.23;;;;;;;;;;5021951;28;20411;-83
2022/06/21 00:57:16;;;;;;;2.37;1.63;;;;;;;;;;5034796;28;20530;-86
2022/06/21 00:59:42;;;;;;;5.40;2.17;;;;;;;;;;5032470;28;20431;-85
2022/06/21 01:02:35;;;;;;;10.20;2.60;;;;;;;;;;5031870;28;20403;-85
2022/06/21 01:05:02;;;;;;;6.33;2.07;;;;;;;;;;5028761;28;20438;-85
2022/06/21 01:07:29;;;;;;;5.23;1.77;;;;;;;;;;5014098;28;20416;-85
2022/06/21 01:09:55;;;;;;;4.57;3.10;;;;;;;;;;5029521;28;20507;-86
2022/06/21 01:12:26;;;;;;;3.60;2.20;;;;;;;;;;5031406;28;20426;-84
2022/06/21 01:17:59;;;;;;;3.43;2.30;;;;;;;;;;5032397;28;20391;-85
2022/06/21 01:20:27;;;;;;;3.50;2.47;;;;;;;;;;5014420;28;20443;-85
2022/06/21 01:22:56;;;;;;;3.93;2.10;;;;;;;;;;5014124;28;20411;-85
2022/06/21 01:25:34;;;;;;;4.30;1.80;;;;;;;;;;5013390;28;20418;-84
2022/06/21 01:28:00;;;;;;;3.67;2.10;;;;;;;;;;5012790;28;20450;-84
2022/06/21 01:30:28;;;;;;;3.80;1.80;;;;;;;;;;5013130;28;20443;-84
2022/06/21 01:32:56;;;;;;;3.60;1.53;;;;;;;;;;5030564;28;20400;-84
2022/06/21 01:35:25;;;;;;;2.13;1.47;;;;;;;;;;5030898;28;20410;-85
2022/06/21 01:37:51;;;;;;;2.90;1.47;;;;;;;;;;5029870;28;20463;-84
2022/06/21 01:40:21;;;;;;;4.50;1.50;;;;;;;;;;5030126;28;20450;-85
2022/06/21 01:42:52;;;;;;;3.97;1.60;;;;;;;;;;5031016;28;20739;-85
2022/06/21 01:45:20;;;;;;;1.80;1.20;;;;;;;;;;5030964;28;20431;-85
2022/06/21 01:48:06;;;;;;;2.20;1.40;;;;;;;;;;5013280;28;20410;-85
2022/06/21 01:50:33;;;;;;;2.10;1.37;;;;;;;;;;5034847;28;20442;-85
2022/06/21 01:52:59;;;;;;;3.30;1.83;;;;;;;;;;5031357;28;20483;-85
2022/06/21 01:55:29;;;;;;;2.17;1.50;;;;;;;;;;5031515;28;20410;-85
2022/06/21 01:57:57;;;;;;;3.00;1.60;;;;;;;;;;5014183;28;20392;-85
2022/06/21 02:00:23;;;;;;;5.03;1.57;;;;;;;;;;5013738;28;20427;-85
2022/06/21 02:02:51;;;;;;;3.20;1.70;;;;;;;;;;5013914;28;20809;-85
2022/06/21 02:05:21;;;;;;;2.30;1.57;;;;;;;;;;5030589;28;20375;-85
2022/06/21 02:07:50;;;;;;;2.87;1.63;;;;;;;;;;5030554;28;20426;-85
2022/06/21 02:10:16;;;;;;;1.77;1.30;;;;;;;;;;5013561;28;20434;-85
2022/06/21 02:12:45;;;;;;;1.93;1.17;;;;;;;;;;5013688;28;20407;-85
2022/06/21 02:15:18;;;;;;;2.67;1.50;;;;;;;;;;5030877;28;20483;-86
2022/06/21 02:17:45;;;;;;;3.57;1.10;;;;;;;;;;5013323;28;20443;-85
2022/06/21 02:20:20;;;;;;;2.60;1.50;;;;;;;;;;5028947;28;20439;-84
2022/06/21 02:22:46;;;;;;;3.70;1.27;;;;;;;;;;5009300;28;20440;-84
2022/06/21 02:25:18;;;;;;;2.23;1.73;;;;;;;;;;5002265;28;20506;-83
2022/06/21 02:27:44;;;;;;;1.80;1.00;;;;;;;;;;5027152;28;20505;-85
2022/06/21 02:30:23;;;;;;;2.53;1.40;;;;;;;;;;5022127;28;20419;-84
2022/06/21 02:32:50;;;;;;;3.60;1.57;;;;;;;;;;5004097;28;20506;-85
2022/06/21 02:35:16;;;;;;;3.40;1.40;;;;;;;;;;5007945;28;20411;-85
2022/06/21 02:37:42;;;;;;;2.20;1.30;;;;;;;;;;5004084;28;20517;-83
2022/06/21 02:40:11;;;;;;;3.50;1.23;;;;;;;;;;5024606;28;20439;-84
2022/06/21 02:42:40;;;;;;;3.27;1.50;;;;;;;;;;5005795;28;20434;-84
2022/06/21 02:45:08;;;;;;;3.40;1.20;;;;;;;;;;5006132;28;20411;-84
2022/06/21 02:47:39;;;;;;;2.17;1.10;;;;;;;;;;5004957;28;20518;-84
2022/06/21 02:50:25;;;;;;;1.77;1.00;;;;;;;;;;4990523;28;20506;-84
2022/06/21 02:52:52;;;;;;;6.13;1.40;;;;;;;;;;4983075;28;20416;-85
2022/06/21 02:55:24;;;;;;;1.73;1.20;;;;;;;;;;5011848;28;20464;-84
2022/06/21 02:57:53;;;;;;;2.67;1.30;;;;;;;;;;5013380;28;20420;-84
2022/06/21 03:00:20;;;;;;;1.90;1.13;;;;;;;;;;5013445;28;20440;-85
2022/06/21 03:02:46;;;;;;;2.13;1.13;;;;;;;;;;5013223;28;20488;-85
2022/06/21 03:05:15;;;;;;;2.07;1.27;;;;;;;;;;5013966;28;20423;-84
2022/06/21 03:07:43;;;;;;;4.90;1.23;;;;;;;;;;4995965;28;20419;-85
2022/06/21 03:10:16;;;;;;;2.60;1.33;;;;;;;;;;5003882;28;20506;-84
2022/06/21 03:12:42;;;;;;;3.27;1.57;;;;;;;;;;5032011;28;20407;-85
2022/06/21 03:15:10;;;;;;;2.73;1.40;;;;;;;;;;5013916;28;20435;-85
2022/06/21 03:17:42;;;;;;;3.67;1.20;;;;;;;;;;5023489;28;20455;-85
2022/06/21 03:20:15;;;;;;;1.80;1.30;;;;;;;;;;5013795;28;20424;-85
2022/06/21 03:22:42;;;;;;;1.67;1.00;;;;;;;;;;5031481;28;20411;-85
2022/06/21 03:25:16;;;;;;;4.80;1.37;;;;;;;;;;5014220;28;20426;-84
2022/06/21 03:27:51;;;;;;;2.13;1.20;;;;;;;;;;5013861;28;20384;-85
2022/06/21 03:30:18;;;;;;;1.60;1.10;;;;;;;;;;5014149;28;20442;-85
2022/06/21 03:32:45;;;;;;;1.73;1.10;;;;;;;;;;5032244;28;20462;-85
2022/06/21 03:35:11;;;;;;;3.00;1.13;;;;;;;;;;5015373;28;20439;-85
2022/06/21 03:37:38;;;;;;;3.17;1.40;;;;;;;;;;5032775;28;20485;-85
2022/06/21 03:42:51;;;;;;;2.97;1.20;;;;;;;;;;4987894;28;20440;-82
2022/06/21 03:45:24;;;;;;;2.17;1.13;;;;;;;;;;4980025;28;20767;-82
2022/06/21 03:47:54;;;;;;;3.10;1.20;;;;;;;;;;4979707;28;20401;-83
2022/06/21 03:50:24;;;;;;;2.73;1.17;;;;;;;;;;4980048;28;20951;-82
2022/06/21 03:53:00;;;;;;;2.20;0.93;;;;;;;;;;4979969;28;20401;-82
2022/06/21 03:55:40;;;;;;;2.70;1.50;;;;;;;;;;4978970;28;20396;-83
2022/06/21 03:58:09;;;;;;;2.20;1.20;;;;;;;;;;4978964;28;20400;-82
2022/06/21 04:00:44;;;;;;;2.43;1.20;;;;;;;;;;4979496;28;20553;-82
2022/06/21 04:03:16;;;;;;;1.80;1.20;;;;;;;;;;4978338;28;20469;-82
2022/06/21 04:05:47;;;;;;;1.50;1.10;;;;;;;;;;4978304;28;20393;-82
2022/06/21 04:08:16;;;;;;;1.70;1.10;;;;;;;;;;4979378;28;20476;-82
2022/06/21 04:10:47;;;;;;;2.00;1.30;;;;;;;;;;4979061;28;20429;-82
2022/06/21 04:13:19;;;;;;;1.80;1.00;;;;;;;;;;4979192;28;20764;-82
2022/06/21 04:16:05;;;;;;;2.60;1.90;;;;;;;;;;4979890;28;20523;-82
2022/06/21 04:18:42;;;;;;;3.07;1.53;;;;;;;;;;4978906;28;20417;-82
2022/06/21 04:21:16;;;;;;;4.00;1.33;;;;;;;;;;4979488;28;20431;-82
2022/06/21 04:23:45;;;;;;;3.10;1.10;;;;;;;;;;4977959;28;20878;-82
2022/06/21 04:26:11;;;;;;;2.93;1.57;;;;;;;;;;4979076;28;20409;-82
2022/06/21 04:28:37;;;;;;;1.80;1.20;;;;;;;;;;4979333;28;20463;-82
2022/06/21 04:31:13;;;;;;;3.73;1.50;;;;;;;;;;4979296;28;20429;-82
2022/06/21 04:33:39;;;;;;;3.13;1.50;;;;;;;;;;4979259;28;20401;-82
2022/06/21 04:36:08;;;;;;;3.10;1.20;;;;;;;;;;4977998;28;20544;-82
2022/06/21 04:38:36;;;;;;;3.50;1.40;;;;;;;;;;4977718;28;20409;-82
2022/06/21 04:41:06;;;;;;;3.40;1.63;;;;;;;;;;4978484;28;20441;-82
2022/06/21 04:43:43;;;;;;;2.53;1.50;;;;;;;;;;4977831;28;20409;-84
2022/06/21 04:46:13;;;;;;;3.00;1.40;;;;;;;;;;4976892;28;20420;-82
2022/06/21 04:48:42;;;;;;;5.60;1.73;;;;;;;;;;4978007;28;20432;-82
2022/06/21 04:51:08;;;;;;;4.50;1.53;;;;;;;;;;4978146;28;20437;-82
2022/06/21 04:53:34;;;;;;;2.57;1.37;;;;;;;;;;4977883;28;20794;-82
2022/06/21 04:56:07;;;;;;;3.13;1.50;;;;;;;;;;4978026;28;20453;-82
2022/06/21 04:58:33;;;;;;;3.73;1.50;;;;;;;;;;4980022;28;20390;-82
2022/06/21 05:01:00;;;;;;;3.27;1.50;;;;;;;;;;4977989;28;20433;-82
2022/06/21 05:03:29;;;;;;;2.97;1.70;;;;;;;;;;4977125;28;20421;-82
2022/06/21 05:05:56;;;;;;;2.60;1.43;;;;;;;;;;4977578;28;20537;-82
2022/06/21 05:08:23;;;;;;;3.30;1.77;;;;;;;;;;4976891;28;20488;-82
2022/06/21 05:10:54;;;;;;;4.33;2.00;;;;;;;;;;4974278;28;20452;-81
2022/06/21 05:13:33;;;;;;;2.27;1.63;;;;;;;;;;4976075;28;20478;-82
2022/06/21 05:16:01;;;;;;;2.00;1.20;;;;;;;;;;4976465;28;20444;-82
2022/06/21 05:18:32;;;;;;;3.13;1.60;;;;;;;;;;4976563;28;20409;-82
2022/06/21 05:21:01;;;;;;;2.50;1.37;;;;;;;;;;4975262;28;20428;-82
2022/06/21 05:23:28;;;;;;;2.50;1.20;;;;;;;;;;4975863;28;20504;-82
2022/06/21 05:25:55;;;;;;;3.10;1.50;;;;;;;;;;4976595;28;20912;-81
2022/06/21 05:28:42;;;;;;;5.33;2.20;;;;;;;;;;4978081;28;20774;-82
2022/06/21 05:31:13;;;;;;;2.93;1.70;;;;;;;;;;4975796;28;20528;-82
2022/06/21 05:33:42;;;;;;;1.93;1.40;;;;;;;;;;4978114;28;20482;-82
2022/06/21 05:36:11;;;;;;;3.53;1.80;;;;;;;;;;4977872;28;20817;-83
2022/06/21 05:38:47;;;;;;;3.20;1.90;;;;;;;;;;4980354;28;20432;-82
2022/06/21 05:41:29;;;;;;;2.33;1.60;;;;;;;;;;4976943;28;20451;-82
2022/06/21 05:43:58;;;;;;;2.63;1.57;;;;;;;;;;4976266;28;20417;-83
2022/06/21 05:46:25;;;;;;;5.27;1.60;;;;;;;;;;4978400;28;20441;-82
2022/06/21 05:48:51;;;;;;;3.00;1.70;;;;;;;;;;4978495;28;20428;-83
2022/06/21 05:51:23;;;;;;;3.80;1.87;;;;;;;;;;4976831;28;20992;-83
2022/06/21 05:54:11;;;;;;;3.30;1.60;;;;;;;;;;4977716;28;20421;-83
2022/06/21 05:56:38;;;;;;;3.20;2.00;;;;;;;;;;4978277;28;20445;-82
2022/06/21 05:59:07;;;;;;;2.97;1.87;;;;;;;;;;4977014;28;20779;-83
2022/06/21 06:01:35;;;;;;;3.20;1.57;;;;;;;;;;4978400;28;20448;-83
2022/06/21 06:04:01;;;;;;;5.30;1.70;;;;;;;;;;4977997;28;20409;-83
2022/06/21 06:06:30;;;;;;;3.20;1.47;;;;;;;;;;4977771;28;20928;-83
2022/06/21 06:08:58;;;;;;;2.53;1.83;;;;;;;;;;4977677;28;20424;-81
2022/06/21 06:11:57;;;;;;;5.10;1.50;;;;;;;;;;4980061;28;20492;-81
2022/06/21 06:14:14;;;;;;;5.40;1.80;;;;;;;;;;4978173;28;20421;-81
2022/06/21 06:16:42;;;;;;;5.47;1.77;;;;;;;;;;4977849;28;20452;-81
2022/06/21 06:19:28;;;;;;;9.20;1.90;;;;;;;;;;4978320;28;20436;-81
2022/06/21 06:22:06;;;;;;;4.53;1.83;;;;;;;;;;4979105;28;20384;-83
2022/06/21 06:24:41;;;;;;;4.63;1.93;;;;;;;;;;4977946;28;20397;-81
2022/06/21 06:27:09;;;;;;;7.43;2.10;;;;;;;;;;4978359;28;20823;-81
2022/06/21 06:29:42;;;;;;;5.93;2.00;;;;;;;;;;4980483;28;20420;-80
2022/06/21 06:32:18;;;;;;;4.93;2.10;;;;;;;;;;4984014;28;20393;-81
2022/06/21 06:34:46;;;;;;;3.80;2.20;;;;;;;;;;4983550;28;20389;-81
2022/06/21 06:37:25;;;;;;;4.90;1.60;;;;;;;;;;4983956;28;20452;-81
2022/06/21 06:39:51;;;;;;;7.13;1.90;;;;;;;;;;4985092;28;20798;-82
2022/06/21 06:42:21;;;;;;;3.70;1.50;;;;;;;;;;4981225;28;20472;-82
2022/06/21 06:44:49;;;;;;;3.60;1.60;;;;;;;;;;4982731;28;20496;-82
2022/06/21 06:47:17;;;;;;;4.63;1.60;;;;;;;;;;4981506;28;20433;-81
2022/06/21 06:49:46;;;;;;;4.10;1.80;;;;;;;;;;4981355;28;20429;-81
2022/06/21 06:52:15;;;;;;;5.10;1.73;;;;;;;;;;4981993;28;20815;-82
2022/06/21 06:54:41;;;;;;;3.70;1.60;;;;;;;;;;4981307;28;20404;-82
2022/06/21 06:57:26;;;;;;;4.37;1.47;;;;;;;;;;4978739;28;20495;-83
2022/06/21 06:59:52;;;;;;;4.40;1.90;;;;;;;;;;4981035;28;20438;-82
2022/06/21 07:02:38;;;;;;;3.80;1.80;;;;;;;;;;4980962;28;20397;-82
2022/06/21 07:05:10;;;;;;;6.63;2.07;;;;;;;;;;4980106;28;20397;-81
2022/06/21 07:07:57;;;;;;;3.00;1.87;;;;;;;;;;4979111;28;20497;-84
2022/06/21 07:10:25;;;;;;;3.20;1.67;;;;;;;;;;4980759;28;20421;-82
2022/06/21 07:12:52;;;;;;;4.97;1.50;;;;;;;;;;4980183;28;20776;-83
2022/06/21 07:15:20;;;;;;;8.93;2.17;;;;;;;;;;4980378;28;20409;-83
2022/06/21 07:17:53;;;;;;;13.60;2.50;;;;;;;;;;4980791;28;20484;-83
2022/06/21 07:20:22;;;;;;;3.43;1.83;;;;;;;;;;4979291;28;20432;-82
2022/06/21 07:22:51;;;;;;;7.07;1.87;;;;;;;;;;4988690;28;20429;-81
2022/06/21 07:25:36;;;;;;;6.20;1.93;;;;;;;;;;4983406;28;20416;-82
2022/06/21 07:28:11;;;;;;;3.57;1.60;;;;;;;;;;4981916;28;20401;-84
2022/06/21 07:30:40;;;;;;;8.43;1.93;;;;;;;;;;4980080;28;20436;-82
2022/06/21 07:33:10;;;;;;;2.70;1.53;;;;;;;;;;4991606;28;20404;-82
2022/06/21 07:35:56;;;;;;;2.67;1.80;;;;;;;;;;4998436;28;20407;-80
2022/06/21 07:38:25;;;;;;;9.70;2.30;;;;;;;;;;4996855;28;20409;-80
2022/06/21 07:40:56;;;;;;;4.43;1.67;;;;;;;;;;4998562;28;20439;-80
2022/06/21 07:43:22;;;;;;;4.70;1.97;;;;;;;;;;4999070;28;20523;-80
2022/06/21 07:45:59;;;;;;;4.63;1.70;;;;;;;;;;4999095;28;20409;-80
2022/06/21 07:48:28;;;;;;;6.07;3.03;;;;;;;;;;4998708;28;20407;-80
2022/06/21 07:50:57;;;;;;;2.50;1.50;;;;;;;;;;4997090;28;20428;-81
2022/06/21 07:53:33;;;;;;;4.30;1.63;;;;;;;;;;4998489;28;20905;-82
2022/06/21 07:56:31;;;;;;;2.70;1.70;;;;;;;;;;4998088;28;20451;-81
2022/06/21 07:58:59;;;;;;;4.90;2.30;;;;;;;;;;4965049;28;20782;-81
2022/06/21 08:07:11;;;;;;;2.90;1.53;;;;;;;;;;4997723;28;20423;-81
2022/06/21 08:09:37;;;;;;;2.30;1.20;;;;;;;;;;4997178;28;20415;-81
2022/06/21 08:12:04;;;;;;;2.90;1.60;;;;;;;;;;4997431;28;20824;-81
2022/06/21 08:14:31;;;;;;;3.70;1.43;;;;;;;;;;4997569;28;20410;-81
2022/06/21 08:17:07;;;;;;;10.30;2.30;;;;;;;;;;4997068;28;20451;-81
2022/06/21 08:19:40;;;;;;;4.03;2.17;;;;;;;;;;4996761;28;20395;-82
2022/06/21 08:22:08;;;;;;;4.50;1.60;;;;;;;;;;4995378;28;20416;-81
2022/06/21 08:24:53;;;;;;;2.80;2.00;;;;;;;;;;4996454;28;20913;-81
2022/06/21 08:27:19;;;;;;;2.40;1.50;;;;;;;;;;4997668;28;20431;-81
2022/06/21 08:29:54;;;;;;;3.10;1.73;;;;;;;;;;4996785;28;20443;-81
2022/06/21 08:32:41;;;;;;;4.83;1.73;;;;;;;;;;4997809;28;20400;-81
2022/06/21 08:35:11;;;;;;;2.80;1.80;;;;;;;;;;4989659;28;20412;-83
2022/06/21 08:37:44;;;;;;;3.10;2.10;;;;;;;;;;5001119;28;20479;-82
2022/06/21 08:40:12;;;;;;;5.73;2.23;;;;;;;;;;5000392;28;20448;-82
2022/06/21 08:42:38;;;;;;;4.50;2.20;;;;;;;;;;5001487;28;20411;-81
2022/06/21 08:45:41;;;;;;;2.80;1.60;;;;;;;;;;5001682;28;20491;-82
2022/06/21 08:48:26;;;;;;;5.80;2.50;;;;;;;;;;4987765;28;20428;-82
2022/06/21 08:50:52;;;;;;;4.03;2.37;;;;;;;;;;4980164;28;20432;-82
2022/06/21 08:53:26;;;;;;;5.63;2.60;;;;;;;;;;4978214;28;20405;-82
2022/06/21 08:56:01;;;;;;;4.67;2.30;;;;;;;;;;4976820;28;20898;-83
2022/06/21 08:58:36;;;;;;;4.37;2.10;;;;;;;;;;4977786;28;20397;-82
2022/06/21 09:01:14;;;;;;;7.43;2.40;;;;;;;;;;4977128;28;20487;-82
2022/06/21 09:03:50;;;;;;;8.13;2.63;;;;;;;;;;4978551;28;20420;-82
2022/06/21 09:06:31;;;;;;;2.77;1.90;;;;;;;;;;4978076;28;20405;-82
2022/06/21 09:08:57;;;;;;;2.57;1.77;;;;;;;;;;4979383;28;20414;-82
2022/06/21 09:11:23;;;;;;;4.40;2.50;;;;;;;;;;4978929;28;20464;-82
2022/06/21 09:13:56;;;;;;;6.20;3.90;;;;;;;;;;4979199;28;20409;-82
2022/06/21 09:16:38;;;;;;;4.77;1.70;;;;;;;;;;4978468;28;20467;-82
2022/06/21 09:19:10;;;;;;;5.30;2.40;;;;;;;;;;4978992;28;20873;-82
2022/06/21 09:21:48;;;;;;;8.60;2.10;;;;;;;;;;4978416;28;20457;-82
2022/06/21 09:24:33;;;;;;;5.83;2.10;;;;;;;;;;4978850;28;20488;-82
2022/06/21 09:26:59;;;;;;;4.50;2.47;;;;;;;;;;4980334;28;20760;-82
2022/06/21 09:29:34;;;;;;;4.33;2.10;;;;;;;;;;4980752;28;20930;-82
2022/06/21 09:32:06;;;;;;;3.80;1.90;;;;;;;;;;4977709;28;20397;-81
2022/06/21 09:34:35;;;;;;;4.63;2.40;;;;;;;;;;4978236;28;20467;-83
2022/06/21 09:37:04;;;;;;;5.17;2.20;;;;;;;;;;4978772;28;20471;-81
2022/06/21 09:39:59;;;;;;;4.50;2.30;;;;;;;;;;4978216;28;20408;-83
2022/06/21 09:42:31;;;;;;;3.07;2.10;;;;;;;;;;4966389;28;20504;-82
2022/06/21 09:45:00;;;;;;;4.93;2.57;;;;;;;;;;4978805;28;20676;-83
2022/06/21 09:47:45;;;;;;;5.97;2.77;;;;;;;;;;4978797;28;20514;-82
2022/06/21 09:50:29;;;;;;;4.77;2.37;;;;;;;;;;4978639;28;20421;-82
2022/06/21 09:53:14;;;;;;;5.40;2.40;;;;;;;;;;4988067;28;20440;-82
2022/06/21 09:55:46;;;;;;;5.57;2.90;;;;;;;;;;4990154;28;20762;-82
2022/06/21 09:58:31;;;;;;;8.23;3.10;;;;;;;;;;4979995;28;20417;-82
2022/06/21 10:01:06;;;;;;;8.27;2.90;;;;;;;;;;4978331;28;20408;-82
2022/06/21 10:03:39;;;;;;;8.30;2.57;;;;;;;;;;4979873;28;20390;-82
2022/06/21 10:06:08;;;;;;;8.07;2.87;;;;;;;;;;4981527;28;20393;-81
2022/06/21 10:08:43;;;;;;;8.17;3.53;;;;;;;;;;4983281;28;20405;-81
2022/06/21 10:11:21;;;;;;;3.80;2.90;;;;;;;;;;4981311;28;20421;-82
2022/06/21 10:13:58;;;;;;;11.77;3.60;;;;;;;;;;4982447;28;20396;-81
2022/06/21 10:16:43;;;;;;;7.60;3.50;;;;;;;;;;4981084;28;20456;-82
2022/06/21 10:19:28;;;;;;;4.50;3.30;;;;;;;;;;4979972;28;20455;-82
2022/06/21 10:22:13;;;;;;;9.40;3.67;;;;;;;;;;4979633;28;20409;-82
2022/06/21 10:24:39;;;;;;;9.17;3.20;;;;;;;;;;4981311;28;20397;-82
2022/06/21 10:27:06;;;;;;;5.63;3.77;;;;;;;;;;4980515;28;20405;-82
2022/06/21 10:29:50;;;;;;;7.30;3.07;;;;;;;;;;4983405;28;20861;-82
2022/06/21 10:32:26;;;;;;;7.10;4.50;;;;;;;;;;4980913;28;20405;-81
2022/06/21 10:34:58;;;;;;;5.40;3.20;;;;;;;;;;4982013;28;20429;-82
2022/06/21 10:37:30;;;;;;;6.23;3.57;;;;;;;;;;4981622;28;20973;-81
2022/06/21 10:40:21;;;;;;;9.13;3.97;;;;;;;;;;4981509;28;20445;-82
2022/06/21 10:42:53;;;;;;;6.57;2.90;;;;;;;;;;4981956;28;20886;-82
2022/06/21 10:45:19;;;;;;;4.30;2.80;;;;;;;;;;4980490;28;20422;-82
2022/06/21 10:47:45;;;;;;;4.47;2.33;;;;;;;;;;4980519;28;20424;-81
2022/06/21 10:50:17;;;;;;;6.20;2.93;;;;;;;;;;4981607;28;20443;-81
2022/06/21 10:52:46;;;;;;;5.50;3.03;;;;;;;;;;4981119;28;20413;-81
2022/06/21 10:55:15;;;;;;;3.90;3.23;;;;;;;;;;4981144;28;20416;-82
2022/06/21 10:57:47;;;;;;;5.30;3.07;;;;;;;;;;4980846;28;20463;-82
2022/06/21 11:03:34;;;;;;;9.10;3.13;;;;;;;;;;4975431;28;20480;-82
2022/06/21 11:06:12;;;;;;;6.37;3.43;;;;;;;;;;4979318;28;20420;-82
2022/06/21 11:08:55;;;;;;;7.43;3.97;;;;;;;;;;4980392;28;20439;-82
2022/06/21 11:11:40;;;;;;;8.07;3.13;;;;;;;;;;4983536;28;20501;-82
2022/06/21 11:14:15;;;;;;;6.30;3.73;;;;;;;;;;4980961;28;20479;-82
2022/06/21 11:16:41;;;;;;;4.40;3.40;;;;;;;;;;4980986;28;20976;-82
2022/06/21 11:19:17;;;;;;;5.93;3.93;;;;;;;;;;4980272;28;20405;-82
2022/06/21 11:21:46;;;;;;;5.23;3.57;;;;;;;;;;4980201;28;20464;-82
2022/06/21 11:24:12;;;;;;;5.97;3.60;;;;;;;;;;4978765;28;20412;-82
2022/06/21 11:26:41;;;;;;;6.17;3.83;;;;;;;;;;4978753;28;20417;-82
2022/06/21 11:29:23;;;;;;;6.63;4.20;;;;;;;;;;4978957;28;20413;-82
2022/06/21 11:32:07;;;;;;;6.13;3.90;;;;;;;;;;4978563;28;20444;-82
2022/06/21 11:34:46;;;;;;;14.40;4.33;;;;;;;;;;4978961;28;20496;-82
2022/06/21 11:37:22;;;;;;;7.77;4.17;;;;;;;;;;4980668;28;20452;-82
2022/06/21 11:39:55;;;;;;;5.43;3.30;;;;;;;;;;4979736;28;20511;-82
2022/06/21 11:42:25;;;;;;;11.17;4.20;;;;;;;;;;4980087;28;20397;-82
2022/06/21 11:45:11;;;;;;;9.40;3.80;;;;;;;;;;4979856;28;20429;-83
2022/06/21 11:47:57;;;;;;;5.77;3.07;;;;;;;;;;4979847;28;20433;-82
2022/06/21 11:50:25;;;;;;;6.63;4.20;;;;;;;;;;4979944;28;20420;-82
2022/06/21 11:52:54;;;;;;;7.93;3.93;;;;;;;;;;4979527;28;20420;-82
2022/06/21 11:55:23;;;;;;;6.00;4.00;;;;;;;;;;4979440;28;20420;-82
2022/06/21 11:58:09;;;;;;;4.13;3.17;;;;;;;;;;4978976;28;20467;-82
2022/06/21 12:00:40;;;;;;;6.87;4.93;;;;;;;;;;4979004;28;20491;-82
2022/06/21 12:03:11;;;;;;;5.50;3.53;;;;;;;;;;4979630;28;20394;-82
2022/06/21 12:05:57;;;;;;;4.20;3.10;;;;;;;;;;4978777;28;20500;-82
2022/06/21 12:08:26;;;;;;;7.13;4.47;;;;;;;;;;4979815;28;20408;-82
2022/06/21 12:11:00;;;;;;;5.30;3.80;;;;;;;;;;4979723;28;20483;-83
2022/06/21 12:13:29;;;;;;;5.47;4.07;;;;;;;;;;4979610;28;20476;-81
2022/06/21 12:15:58;;;;;;;5.43;3.90;;;;;;;;;;4979740;28;20420;-82
2022/06/21 12:18:26;;;;;;;6.13;3.90;;;;;;;;;;4979968;28;20410;-82
2022/06/21 12:21:07;;;;;;;13.87;6.37;;;;;;;;;;4979498;28;20429;-82
2022/06/21 12:23:41;;;;;;;5.93;3.90;;;;;;;;;;4980031;28;20404;-82
2022/06/21 12:26:11;;;;;;;7.83;4.00;;;;;;;;;;4979233;28;20410;-82
2022/06/21 12:28:39;;;;;;;5.60;3.53;;;;;;;;;;4979264;28;20401;-82
2022/06/21 12:31:25;;;;;;;5.93;3.83;;;;;;;;;;4979637;28;20960;-80
2022/06/21 12:33:55;;;;;;;4.80;3.57;;;;;;;;;;4977527;28;20405;-81
2022/06/21 12:36:34;;;;;;;6.97;3.87;;;;;;;;;;4977849;28;20547;-82
2022/06/21 12:39:12;;;;;;;5.93;3.60;;;;;;;;;;4978476;28;20392;-82
2022/06/21 12:41:44;;;;;;;4.80;3.13;;;;;;;;;;4977485;28;20458;-82
2022/06/21 12:44:23;;;;;;;10.10;3.87;;;;;;;;;;4979404;28;20491;-82
2022/06/21 12:47:06;;;;;;;6.40;3.73;;;;;;;;;;4980216;28;20393;-83
2022/06/21 12:49:32;;;;;;;5.17;3.60;;;;;;;;;;4979930;28;20398;-82
2022/06/21 12:52:14;;;;;;;6.53;3.17;;;;;;;;;;4980947;28;20406;-82
2022/06/21 12:54:55;;;;;;;5.70;3.70;;;;;;;;;;4980908;28;20538;-82
2022/06/21 12:57:33;;;;;;;8.67;6.63;;;;;;;;;;4996779;28;20811;-82
2022/06/21 13:00:05;;;;;;;9.10;3.83;;;;;;;;;;4999890;28;20917;-82
2022/06/21 13:02:50;;;;;;;3.77;3.33;;;;;;;;;;4998775;28;20439;-82
2022/06/21 13:05:32;;;;;;;7.80;3.83;;;;;;;;;;4996567;28;20883;-82
2022/06/21 13:08:29;;;;;;;5.00;3.23;;;;;;;;;;4996408;28;20404;-82
2022/06/21 13:11:33;;;;;;;4.93;3.47;;;;;;;;;;4979863;28;20528;-81
2022/06/21 13:14:18;;;;;;;5.30;3.80;;;;;;;;;;4990605;28;20415;-81
2022/06/21 13:16:44;;;;;;;7.90;3.77;;;;;;;;;;4997351;28;20456;-81
2022/06/21 13:19:10;;;;;;;4.93;3.53;;;;;;;;;;4996585;28;20759;-81
2022/06/21 13:21:45;;;;;;;6.17;3.53;;;;;;;;;;4995850;28;20412;-81
2022/06/21 13:24:24;;;;;;;8.70;4.23;;;;;;;;;;4996246;28;20762;-80
2022/06/21 13:26:50;;;;;;;5.67;4.67;;;;;;;;;;4995564;28;20388;-80
2022/06/21 13:29:36;;;;;;;5.93;4.20;;;;;;;;;;4995684;28;20416;-81
2022/06/21 13:32:06;;;;;;;5.73;3.93;;;;;;;;;;4995750;28;20415;-81
2022/06/21 13:34:41;;;;;;;5.03;3.73;;;;;;;;;;4996893;28;20400;-81
2022/06/21 13:37:11;;;;;;;4.83;4.37;;;;;;;;;;4996699;28;20763;-81
2022/06/21 13:39:58;;;;;;;6.10;4.00;;;;;;;;;;4995925;28;20412;-82
2022/06/21 13:42:40;;;;;;;6.27;3.83;;;;;;;;;;4996483;28;20415;-83
2022/06/21 13:45:15;;;;;;;6.83;3.20;;;;;;;;;;4996530;28;20384;-82
2022/06/21 13:47:41;;;;;;;9.07;3.13;;;;;;;;;;4996226;28;20392;-82
2022/06/21 13:50:13;;;;;;;4.70;3.30;;;;;;;;;;4996654;28;20431;-82
2022/06/21 13:52:48;;;;;;;4.30;3.10;;;;;;;;;;4997339;28;20404;-85
2022/06/21 13:55:33;;;;;;;4.37;2.97;;;;;;;;;;4996495;28;20420;-83
2022/06/21 13:58:05;;;;;;;4.60;3.27;;;;;;;;;;4995830;28;20451;-81
2022/06/21 14:00:41;;;;;;;4.27;2.83;;;;;;;;;;4996071;28;20792;-82
2022/06/21 14:03:14;;;;;;;6.17;3.73;;;;;;;;;;4997257;28;20895;-83
2022/06/21 14:05:51;;;;;;;5.10;3.33;;;;;;;;;;4997199;28;20384;-82
2022/06/21 14:08:23;;;;;;;4.60;3.37;;;;;;;;;;4994907;28;20423;-83
2022/06/21 14:10:55;;;;;;;6.40;2.90;;;;;;;;;;4996774;28;20478;-83
2022/06/21 14:13:24;;;;;;;8.87;3.80;;;;;;;;;;4996648;28;20420;-82
2022/06/21 14:16:12;;;;;;;6.77;3.00;;;;;;;;;;4995878;28;20944;-82
2022/06/21 14:18:50;;;;;;;6.53;3.50;;;;;;;;;;4996071;28;20400;-82
2022/06/21 14:21:24;;;;;;;3.43;2.83;;;;;;;;;;4996628;28;20420;-83
2022/06/21 14:23:53;;;;;;;10.83;3.43;;;;;;;;;;4997497;28;20377;-83
2022/06/21 14:26:19;;;;;;;6.37;3.60;;;;;;;;;;4995171;28;20404;-83
2022/06/21 14:28:48;;;;;;;4.70;3.50;;;;;;;;;;4996425;28;20770;-80
2022/06/21 14:31:17;;;;;;;5.53;3.70;;;;;;;;;;4995964;28;20471;-81
2022/06/21 14:33:53;;;;;;;6.80;3.53;;;;;;;;;;4995642;28;20411;-81
2022/06/21 14:36:27;;;;;;;4.33;3.60;;;;;;;;;;4996329;28;20454;-82
2022/06/21 14:41:55;;;;;;;7.97;3.70;;;;;;;;;;5066598;23;20484;-82
2022/06/21 14:44:32;;;;;;;6.03;3.50;;;;;;;;;;4996006;28;20404;-82
2022/06/21 14:47:24;;;;;;;8.50;3.70;;;;;;;;;;4995798;28;20426;-82
2022/06/21 14:50:09;;;;;;;12.60;3.60;;;;;;;;;;4964533;28;20586;-82
2022/06/21 14:52:56;;;;;;;4.20;3.03;;;;;;;;;;4999840;28;20416;-82
2022/06/21 14:55:48;;;;;;;5.00;3.53;;;;;;;;;;4999590;28;20462;-82
2022/06/21 14:58:14;;;;;;;5.67;3.10;;;;;;;;;;4978532;28;20416;-81
2022/06/21 15:00:42;;;;;;;5.23;3.30;;;;;;;;;;4999358;23;20411;-81
2022/06/21 15:03:11;;;;;;;5.83;2.83;;;;;;;;;;5036665;28;20485;-85
2022/06/21 15:05:40;;;;;;;6.10;3.50;;;;;;;;;;5021376;28;20412;-85
2022/06/21 15:08:27;;;;;;;3.60;2.90;;;;;;;;;;5038994;28;20974;-85
2022/06/21 15:11:13;;;;;;;5.57;3.07;;;;;;;;;;5000933;28;20430;-85
2022/06/21 15:13:46;;;;;;;5.13;3.30;;;;;;;;;;5040879;28;20925;-84
2022/06/21 15:16:15;;;;;;;6.67;4.83;;;;;;;;;;5041110;28;20445;-85
2022/06/21 15:18:49;;;;;;;5.10;3.00;;;;;;;;;;5023269;28;20418;-86
2022/06/21 15:21:20;;;;;;;3.57;3.00;;;;;;;;;;5041412;28;20419;-85
2022/06/21 15:23:51;;;;;;;7.10;3.33;;;;;;;;;;5022231;28;20419;-83
2022/06/21 15:26:17;;;;;;;3.40;2.67;;;;;;;;;;5041213;28;20415;-83
2022/06/21 15:28:45;;;;;;;6.10;2.97;;;;;;;;;;5040419;28;20411;-85
2022/06/21 15:31:13;;;;;;;5.40;2.70;;;;;;;;;;5040213;28;20430;-84
2022/06/21 15:33:42;;;;;;;5.90;2.90;;;;;;;;;;5039669;28;20414;-85
2022/06/21 15:36:14;;;;;;;5.17;2.90;;;;;;;;;;5039720;28;20426;-84